createdAt,value
2022-09-03T00:01:38.011Z,101151.25
2022-09-03T00:04:08.835Z,101156.75
2022-09-03T00:06:39.971Z,101150.19
2022-09-03T00:09:30.276Z,101147.75
2022-09-03T00:12:10.932Z,101149.19
2022-09-03T00:14:47.681Z,101143.41
2022-09-03T00:17:16.199Z,101141.97
2022-09-03T00:19:46.748Z,101147.66
2022-09-03T00:22:19.062Z,101142.75
2022-09-03T00:24:46.172Z,101154.75
2022-09-03T00:27:18.614Z,101143.88
2022-09-03T00:29:54.971Z,101136.69
2022-09-03T00:32:33.634Z,101139.34
2022-09-03T00:35:05.474Z,101144.22
2022-09-03T00:37:37.114Z,101146.25
2022-09-03T00:40:08.068Z,101144.13
2022-09-03T00:42:37.166Z,101154.97
2022-09-03T00:45:03.385Z,101154.13
2022-09-03T00:47:48.499Z,101146.94
2022-09-03T00:50:18.865Z,101154.28
2022-09-03T00:53:00.295Z,101141.00
2022-09-03T00:55:26.950Z,101147.69
2022-09-03T00:58:01.935Z,101138.47
2022-09-03T01:00:29.100Z,101142.69
2022-09-03T01:03:01.393Z,101145.53
2022-09-03T01:05:58.507Z,101132.66
2022-09-03T01:08:47.417Z,101134.88
2022-09-03T01:11:36.847Z,101139.53
2022-09-03T01:14:12.707Z,101138.28
2022-09-03T01:16:44.819Z,101137.03
2022-09-03T01:19:30.221Z,101139.69
2022-09-03T01:22:08.843Z,101148.00
2022-09-03T01:24:53.757Z,101149.84
2022-09-03T01:27:36.846Z,101147.13
2022-09-03T01:30:18.369Z,101149.34
2022-09-03T01:33:03.663Z,101149.34
2022-09-03T01:35:50.193Z,101150.91
2022-09-03T01:38:22.345Z,101149.63
2022-09-03T01:40:54.709Z,101149.00
2022-09-03T01:43:32.350Z,101150.38
2022-09-03T01:46:16.970Z,101146.59
2022-09-03T01:48:46.416Z,101146.78
2022-09-03T01:51:20.879Z,101144.50
2022-09-03T01:53:47.206Z,101150.38
2022-09-03T01:56:34.372Z,101150.53
2022-09-03T01:59:21.059Z,101149.56
2022-09-03T02:01:56.862Z,101156.88
2022-09-03T02:04:25.810Z,101142.97
2022-09-03T02:06:52.868Z,101142.97
2022-09-03T02:09:19.851Z,101147.44
2022-09-03T02:11:50.679Z,101155.78
2022-09-03T02:14:17.627Z,101149.03
2022-09-03T02:16:44.838Z,101153.66
2022-09-03T02:19:12.962Z,101147.09
2022-09-03T02:21:42.519Z,101148.91
2022-09-03T02:24:09.318Z,101154.41
2022-09-03T02:26:36.087Z,101151.13
2022-09-03T02:29:02.987Z,101154.97
2022-09-03T02:31:29.588Z,101146.38
2022-09-03T02:33:57.045Z,101146.38
2022-09-03T02:36:29.468Z,101150.00
2022-09-03T02:38:55.789Z,101145.72
2022-09-03T02:41:22.730Z,101143.66
2022-09-03T02:43:53.734Z,101147.28
2022-09-03T02:46:27.079Z,101145.00
2022-09-03T02:48:54.059Z,101152.13
2022-09-03T02:51:20.473Z,101148.56
2022-09-03T02:53:46.750Z,101144.28
2022-09-03T02:56:13.586Z,101141.16
2022-09-03T02:58:39.858Z,101140.97
2022-09-03T03:01:06.245Z,101138.50
2022-09-03T03:03:33.157Z,101146.47
2022-09-03T03:06:01.246Z,101144.38
2022-09-03T03:08:28.563Z,101138.25
2022-09-03T03:10:58.597Z,101128.00
2022-09-03T03:13:25.431Z,101129.63
2022-09-03T03:15:51.926Z,101134.13
2022-09-03T03:18:18.393Z,101128.81
2022-09-03T03:20:44.870Z,101129.19
2022-09-03T03:23:11.246Z,101128.56
2022-09-03T03:25:38.642Z,101130.75
2022-09-03T03:28:05.344Z,101130.91
2022-09-03T03:30:32.531Z,101129.47
2022-09-03T03:32:58.843Z,101128.34
2022-09-03T03:35:25.232Z,101130.81
2022-09-03T03:37:51.667Z,101136.47
2022-09-03T03:40:18.070Z,101138.66
2022-09-03T03:42:44.319Z,101128.44
2022-09-03T03:45:10.763Z,101127.97
2022-09-03T03:47:37.189Z,101126.69
2022-09-03T03:50:04.390Z,101136.44
2022-09-03T03:52:30.675Z,101127.81
2022-09-03T03:54:57.266Z,101128.53
2022-09-03T03:57:23.845Z,101129.19
2022-09-03T03:59:50.694Z,101130.19
2022-09-03T04:02:17.470Z,101128.53
2022-09-03T04:04:43.799Z,101118.50
2022-09-03T04:07:10.314Z,101121.97
2022-09-03T04:09:37.328Z,101120.31
2022-09-03T04:12:05.413Z,101121.88
2022-09-03T04:14:31.700Z,101120.38
2022-09-03T04:16:58.361Z,101119.94
2022-09-03T04:19:25.139Z,101124.38
2022-09-03T04:21:51.630Z,101122.59
2022-09-03T04:24:17.919Z,101117.28
2022-09-03T04:26:44.460Z,101123.75
2022-09-03T04:29:10.827Z,101117.81
2022-09-03T04:31:38.088Z,101117.16
2022-09-03T04:34:09.291Z,101118.19
2022-09-03T04:36:37.417Z,101114.25
2022-09-03T04:39:03.723Z,101116.25
2022-09-03T04:41:31.147Z,101118.59
2022-09-03T04:43:58.291Z,101109.63
2022-09-03T04:46:26.150Z,101115.13
2022-09-03T04:48:54.303Z,101111.47
2022-09-03T04:51:22.014Z,101113.94
2022-09-03T04:53:49.906Z,101112.28
2022-09-03T04:56:20.365Z,101121.41
2022-09-03T04:58:50.975Z,101117.94
2022-09-03T05:01:21.520Z,101107.69
2022-09-03T05:03:48.051Z,101118.47
2022-09-03T05:06:17.046Z,101123.28
2022-09-03T05:08:43.975Z,101125.09
2022-09-03T05:11:10.574Z,101115.34
2022-09-03T05:13:36.973Z,101117.16
2022-09-03T05:16:05.739Z,101120.81
2022-09-03T05:18:32.960Z,101124.28
2022-09-03T05:21:00.554Z,101117.34
2022-09-03T05:23:27.598Z,101124.44
2022-09-03T05:26:01.268Z,101135.03
2022-09-03T05:28:28.772Z,101129.09
2022-09-03T05:31:05.958Z,101138.06
2022-09-03T05:33:36.150Z,101130.28
2022-09-03T05:36:04.163Z,101127.63
2022-09-03T05:38:30.879Z,101117.88
2022-09-03T05:40:58.430Z,101114.25
2022-09-03T05:43:25.143Z,101121.69
2022-09-03T05:45:51.466Z,101118.72
2022-09-03T05:48:17.789Z,101129.09
2022-09-03T05:50:44.042Z,101126.75
2022-09-03T05:53:10.374Z,101120.28
2022-09-03T05:55:36.619Z,101124.03
2022-09-03T05:58:02.914Z,101123.06
2022-09-03T06:00:29.217Z,101123.72
2022-09-03T06:02:55.670Z,101124.34
2022-09-03T06:05:22.068Z,101127.28
2022-09-03T06:07:49.548Z,101131.41
2022-09-03T06:10:18.178Z,101127.09
2022-09-03T06:12:47.247Z,101133.69
2022-09-03T06:15:13.693Z,101135.19
2022-09-03T06:17:39.969Z,101127.50
2022-09-03T06:20:06.472Z,101127.31
2022-09-03T06:22:32.798Z,101130.44
2022-09-03T06:24:59.053Z,101123.66
2022-09-03T06:27:25.309Z,101129.09
2022-09-03T06:29:51.593Z,101132.56
2022-09-03T06:32:17.892Z,101128.91
2022-09-03T06:34:44.190Z,101132.31
2022-09-03T06:37:10.480Z,101132.13
2022-09-03T06:39:36.793Z,101130.16
2022-09-03T06:42:03.055Z,101135.44
2022-09-03T06:44:29.502Z,101141.56
2022-09-03T06:46:55.832Z,101134.44
2022-09-03T06:49:22.338Z,101140.66
2022-09-03T06:51:48.689Z,101131.91
2022-09-03T06:54:15.846Z,101133.56
2022-09-03T06:56:42.155Z,101126.53
2022-09-03T06:59:12.479Z,101131.56
2022-09-03T07:01:44.695Z,101125.53
2022-09-03T07:04:12.823Z,101129.63
2022-09-03T07:06:40.437Z,101130.91
2022-09-03T07:09:07.463Z,101132.19
2022-09-03T07:11:35.831Z,101137.59
2022-09-03T07:14:03.706Z,101142.91
2022-09-03T07:16:32.889Z,101139.06
2022-09-03T07:19:00.919Z,101137.09
2022-09-03T07:21:28.186Z,101140.97
2022-09-03T07:23:55.307Z,101138.38
2022-09-03T07:26:26.083Z,101141.13
2022-09-03T07:28:54.140Z,101142.03
2022-09-03T07:31:25.646Z,101136.19
2022-09-03T07:33:55.662Z,101139.06
2022-09-03T07:36:22.566Z,101136.25
2022-09-03T07:38:48.975Z,101140.34
2022-09-03T07:41:17.491Z,101135.53
2022-09-03T07:43:53.729Z,101130.19
2022-09-03T07:46:24.359Z,101134.56
2022-09-03T07:48:52.242Z,101127.47
2022-09-03T07:51:19.398Z,101131.75
2022-09-03T07:53:46.783Z,101126.31
2022-09-03T07:56:13.546Z,101128.84
2022-09-03T07:58:41.141Z,101126.25
2022-09-03T08:01:11.297Z,101127.13
2022-09-03T08:03:38.504Z,101132.50
2022-09-03T08:06:07.607Z,101134.28
2022-09-03T08:08:36.317Z,101129.00
2022-09-03T08:11:12.946Z,101120.69
2022-09-03T08:14:01.650Z,101132.44
2022-09-03T08:16:32.136Z,101121.50
2022-09-03T08:18:58.836Z,101127.53
2022-09-03T08:21:26.381Z,101127.59
2022-09-03T08:23:54.733Z,101132.16
2022-09-03T08:26:21.509Z,101133.03
2022-09-03T08:28:48.611Z,101136.25
2022-09-03T08:31:16.579Z,101135.81
2022-09-03T08:33:44.286Z,101131.63
2022-09-03T08:36:15.513Z,101132.81
2022-09-03T08:38:43.499Z,101134.31
2022-09-03T08:41:16.346Z,101129.50
2022-09-03T08:43:52.151Z,101130.22
2022-09-03T08:46:18.964Z,101136.47
2022-09-03T08:48:47.375Z,101132.59
2022-09-03T08:51:16.132Z,101135.28
2022-09-03T08:53:48.447Z,101130.25
2022-09-03T08:56:31.432Z,101135.41
2022-09-03T08:58:57.991Z,101137.06
2022-09-03T09:01:42.951Z,101132.13
2022-09-03T09:04:15.682Z,101129.75
2022-09-03T09:06:47.911Z,101127.22
2022-09-03T09:09:32.811Z,101118.56
2022-09-03T09:12:23.491Z,101123.06
2022-09-03T09:15:08.687Z,101123.69
2022-09-03T09:17:55.837Z,101120.34
2022-09-03T09:20:29.747Z,101126.25
2022-09-03T09:23:01.266Z,101121.78
2022-09-03T09:25:27.775Z,101116.56
2022-09-03T09:27:58.611Z,101118.41
2022-09-03T09:30:26.375Z,101114.31
2022-09-03T09:32:52.924Z,101114.41
2022-09-03T09:35:19.906Z,101119.72
2022-09-03T09:37:46.954Z,101107.41
2022-09-03T09:40:22.994Z,101116.00
2022-09-03T09:42:49.298Z,101117.22
2022-09-03T09:45:15.586Z,101119.19
2022-09-03T09:47:42.495Z,101118.63
2022-09-03T09:50:26.337Z,101130.69
2022-09-03T09:53:14.266Z,101121.31
2022-09-03T09:55:49.551Z,101123.59
2022-09-03T09:58:19.605Z,101114.38
2022-09-03T10:01:00.429Z,101115.94
2022-09-03T10:03:29.745Z,101114.84
2022-09-03T10:06:23.892Z,101122.34
2022-09-03T10:08:50.275Z,101116.56
2022-09-03T10:11:18.289Z,101111.03
2022-09-03T10:13:48.014Z,101118.41
2022-09-03T10:16:29.593Z,101115.44
2022-09-03T10:19:10.949Z,101112.09
2022-09-03T10:21:37.298Z,101105.75
2022-09-03T10:24:15.638Z,101105.16
2022-09-03T10:26:44.748Z,101102.09
2022-09-03T10:29:11.948Z,101108.16
2022-09-03T10:31:45.696Z,101104.72
2022-09-03T10:34:11.934Z,101098.59
2022-09-03T10:37:00.656Z,101108.66
2022-09-03T10:39:43.320Z,101099.22
2022-09-03T10:42:12.814Z,101099.56
2022-09-03T10:44:57.467Z,101094.47
2022-09-03T10:47:35.972Z,101095.88
2022-09-03T10:50:23.178Z,101092.09
2022-09-03T10:52:57.971Z,101091.00
2022-09-03T10:55:24.239Z,101094.53
2022-09-03T10:58:05.656Z,101094.50
2022-09-03T11:00:34.488Z,101094.25
2022-09-03T11:03:15.673Z,101089.91
2022-09-03T11:06:00.932Z,101091.00
2022-09-03T11:08:37.809Z,101093.63
2022-09-03T11:11:22.702Z,101091.47
2022-09-03T11:13:53.989Z,101094.09
2022-09-03T11:16:25.585Z,101086.75
2022-09-03T11:18:57.475Z,101084.31
2022-09-03T11:21:26.125Z,101090.78
2022-09-03T11:24:00.490Z,101077.75
2022-09-03T11:26:27.763Z,101087.16
2022-09-03T11:29:00.573Z,101077.13
2022-09-03T11:31:47.062Z,101076.97
2022-09-03T11:34:23.290Z,101066.78
2022-09-03T11:36:50.226Z,101062.66
2022-09-03T11:39:33.258Z,101069.41
2022-09-03T11:42:06.986Z,101069.56
2022-09-03T11:44:51.171Z,101065.22
2022-09-03T11:47:25.145Z,101059.22
2022-09-03T11:50:04.966Z,101060.81
2022-09-03T11:52:32.505Z,101064.03
2022-09-03T11:54:58.954Z,101060.84
2022-09-03T11:57:30.154Z,101063.63
2022-09-03T12:00:13.606Z,101053.00
2022-09-03T12:02:45.261Z,101064.13
2022-09-03T12:05:14.438Z,101053.38
2022-09-03T12:07:51.308Z,101057.53
2022-09-03T12:10:25.278Z,101053.34
2022-09-03T12:12:53.799Z,101058.75
2022-09-03T12:15:22.854Z,101052.88
2022-09-03T12:18:13.698Z,101052.56
2022-09-03T12:20:40.778Z,101058.78
2022-09-03T12:23:08.091Z,101058.56
2022-09-03T12:25:34.357Z,101050.78
2022-09-03T12:28:03.759Z,101057.41
2022-09-03T12:30:30.941Z,101059.94
2022-09-03T12:33:05.411Z,101056.56
2022-09-03T12:38:23.529Z,101048.38
2022-09-03T12:43:38.177Z,101051.72
2022-09-03T12:46:10.435Z,101045.16
2022-09-03T12:48:40.534Z,101057.38
2022-09-03T12:53:56.137Z,101049.81
2022-09-03T12:56:22.625Z,101045.09
2022-09-03T12:58:49.695Z,101047.66
2022-09-03T13:01:42.386Z,101044.59
2022-09-03T13:04:10.337Z,101042.91
2022-09-03T13:06:46.682Z,101035.47
2022-09-03T13:09:13.337Z,101051.03
2022-09-03T13:11:39.714Z,101049.72
2022-09-03T13:14:11.156Z,101048.38
2022-09-03T13:16:40.429Z,101040.59
2022-09-03T13:19:09.847Z,101045.00
2022-09-03T13:21:45.283Z,101039.09
2022-09-03T13:24:19.394Z,101045.66
2022-09-03T13:26:56.613Z,101042.41
2022-09-03T13:29:40.006Z,101035.59
2022-09-03T13:32:17.175Z,101040.56
2022-09-03T13:34:49.289Z,101042.84
2022-09-03T13:37:34.082Z,101043.63
2022-09-03T13:40:10.040Z,101040.91
2022-09-03T13:42:40.554Z,101039.22
2022-09-03T13:45:23.178Z,101043.72
2022-09-03T13:48:26.409Z,101041.38
2022-09-03T13:51:06.591Z,101045.31
2022-09-03T13:53:51.501Z,101034.13
2022-09-03T13:56:36.251Z,101031.88
2022-09-03T13:59:09.400Z,101037.22
2022-09-03T14:01:35.759Z,101043.31
2022-09-03T14:04:03.463Z,101034.59
2022-09-03T14:06:47.885Z,101040.06
2022-09-03T14:09:31.061Z,101040.69
2022-09-03T14:12:03.394Z,101035.19
2022-09-03T14:14:44.773Z,101038.88
2022-09-03T14:17:15.099Z,101034.34
2022-09-03T14:19:46.627Z,101037.81
2022-09-03T14:22:22.841Z,101033.59
2022-09-03T14:25:01.244Z,101039.59
2022-09-03T14:27:28.896Z,101031.59
2022-09-03T14:29:59.792Z,101028.09
2022-09-03T14:32:31.906Z,101037.03
2022-09-03T14:35:03.102Z,101030.16
2022-09-03T14:37:44.805Z,101027.25
2022-09-03T14:40:17.123Z,101034.50
2022-09-03T14:42:49.605Z,101033.69
2022-09-03T14:45:34.832Z,101027.13
2022-09-03T14:48:01.313Z,101027.75
2022-09-03T14:50:43.299Z,101028.97
2022-09-03T14:53:10.469Z,101027.94
2022-09-03T14:55:43.762Z,101031.03
2022-09-03T14:58:16.265Z,101022.66
2022-09-03T15:00:50.634Z,101028.31
2022-09-03T15:03:29.724Z,101026.41
2022-09-03T15:06:03.571Z,101025.53
2022-09-03T15:08:48.761Z,101029.19
2022-09-03T15:11:20.113Z,101028.38
2022-09-03T15:13:49.923Z,101025.38
2022-09-03T15:16:36.025Z,101022.38
2022-09-03T15:19:08.132Z,101020.16
2022-09-03T15:21:54.701Z,101025.88
2022-09-03T15:24:33.386Z,101028.97
2022-09-03T15:27:20.640Z,101028.75
2022-09-03T15:30:07.809Z,101032.50
2022-09-03T15:32:46.710Z,101031.22
2022-09-03T15:35:33.910Z,101030.84
2022-09-03T15:38:02.487Z,101035.38
2022-09-03T15:40:31.336Z,101027.59
2022-09-03T15:43:05.926Z,101026.03
2022-09-03T15:45:35.540Z,101025.56
2022-09-03T15:48:17.015Z,101033.41
2022-09-03T15:51:10.028Z,101029.28
2022-09-03T15:53:39.697Z,101030.59
2022-09-03T15:56:18.464Z,101033.06
2022-09-03T15:59:03.695Z,101036.13
2022-09-03T16:01:50.999Z,101034.38
2022-09-03T16:04:22.942Z,101035.53
2022-09-03T16:06:49.421Z,101027.75
2022-09-03T16:09:18.875Z,101031.28
2022-09-03T16:11:51.790Z,101036.16
2022-09-03T16:14:23.466Z,101032.94
2022-09-03T16:16:55.096Z,101036.47
2022-09-03T16:19:28.080Z,101033.31
2022-09-03T16:22:07.299Z,101036.63
2022-09-03T16:24:48.987Z,101037.00
2022-09-03T16:27:15.597Z,101036.44
2022-09-03T16:29:42.279Z,101040.28
2022-09-03T16:32:29.766Z,101043.34
2022-09-03T16:34:56.026Z,101041.00
2022-09-03T16:37:30.535Z,101040.75
2022-09-03T16:40:11.312Z,101040.78
2022-09-03T16:42:47.171Z,101048.91
2022-09-03T16:45:33.666Z,101045.41
2022-09-03T16:48:09.861Z,101047.34
2022-09-03T16:50:46.588Z,101048.03
2022-09-03T16:53:28.765Z,101045.84
2022-09-03T16:56:14.162Z,101046.72
2022-09-03T16:58:46.675Z,101054.09
2022-09-03T17:01:22.005Z,101049.25
2022-09-03T17:03:48.692Z,101053.06
2022-09-03T17:06:30.865Z,101047.41
2022-09-03T17:09:23.262Z,101048.78
2022-09-03T17:12:01.901Z,101047.97
2022-09-03T17:14:37.343Z,101056.13
2022-09-03T17:17:12.111Z,101050.69
2022-09-03T17:19:44.307Z,101051.25
2022-09-03T17:22:25.860Z,101053.44
2022-09-03T17:25:11.794Z,101060.16
2022-09-03T17:27:47.439Z,101058.53
2022-09-03T17:30:23.230Z,101063.63
2022-09-03T17:32:57.258Z,101066.31
2022-09-03T17:35:44.490Z,101057.88
2022-09-03T17:38:10.753Z,101070.84
2022-09-03T17:40:44.482Z,101065.09
2022-09-03T17:43:13.782Z,101067.78
2022-09-03T17:45:48.919Z,101063.69
2022-09-03T17:48:40.132Z,101065.53
2022-09-03T17:51:16.563Z,101070.88
2022-09-03T17:53:49.935Z,101077.81
2022-09-03T17:56:25.371Z,101079.66
2022-09-03T17:59:02.510Z,101080.91
2022-09-03T18:01:33.201Z,101087.88
2022-09-03T18:04:05.171Z,101087.84
2022-09-03T18:06:40.814Z,101092.91
2022-09-03T18:09:28.460Z,101098.78
2022-09-03T18:12:07.001Z,101106.22
2022-09-03T18:14:36.626Z,101102.91
2022-09-03T18:17:09.074Z,101109.56
2022-09-03T18:20:12.956Z,101110.22
2022-09-03T18:23:18.139Z,101111.44
2022-09-03T18:26:05.275Z,101116.59
2022-09-03T18:29:10.215Z,101116.38
2022-09-03T18:31:55.030Z,101128.09
2022-09-03T18:34:49.062Z,101130.88
2022-09-03T18:37:35.936Z,101137.63
2022-09-03T18:40:20.810Z,101144.66
2022-09-03T18:43:20.939Z,101145.59
2022-09-03T18:49:29.905Z,101148.06
2022-09-03T18:52:19.609Z,101150.69
2022-09-03T18:55:25.991Z,101155.53
2022-09-03T18:58:36.383Z,101154.41
2022-09-03T19:01:32.580Z,101164.38
2022-09-03T19:04:47.174Z,101167.88
2022-09-03T19:07:50.936Z,101171.50
2022-09-03T19:10:40.842Z,101170.91
2022-09-03T19:13:44.903Z,101177.31
2022-09-03T19:16:56.078Z,101170.56
2022-09-03T19:19:43.759Z,101173.44
2022-09-03T19:22:30.162Z,101177.34
2022-09-03T19:25:18.633Z,101178.72
2022-09-03T19:28:11.498Z,101176.22
2022-09-03T19:31:06.508Z,101186.91
2022-09-03T19:33:51.732Z,101184.41
2022-09-03T19:36:55.384Z,101183.91
2022-09-03T19:39:52.718Z,101182.72
2022-09-03T19:42:44.312Z,101188.38
2022-09-03T19:45:32.641Z,101194.00
2022-09-03T19:48:29.852Z,101199.44
2022-09-03T19:51:23.367Z,101197.06
2022-09-03T19:54:09.148Z,101198.63
2022-09-03T19:56:55.492Z,101198.31
2022-09-03T19:59:43.271Z,101202.09
2022-09-03T20:02:28.062Z,101200.97
2022-09-03T20:05:26.126Z,101210.28
2022-09-03T20:08:13.036Z,101206.84
2022-09-03T20:10:41.657Z,101207.94
2022-09-03T20:13:09.215Z,101211.47
2022-09-03T20:15:42.727Z,101210.50
2022-09-03T20:18:14.926Z,101215.09
2022-09-03T20:20:46.163Z,101216.16
2022-09-03T20:23:15.213Z,101220.94
2022-09-03T20:26:13.846Z,101217.50
2022-09-03T20:28:55.339Z,101225.13
2022-09-03T20:31:24.273Z,101226.59
2022-09-03T20:33:50.581Z,101229.47
2022-09-03T20:36:26.096Z,101231.75
2022-09-03T20:39:11.165Z,101231.97
2022-09-03T20:41:53.387Z,101234.66
2022-09-03T20:44:31.966Z,101230.16
2022-09-03T20:47:04.828Z,101235.75
2022-09-03T20:49:40.379Z,101239.25
2022-09-03T20:52:11.228Z,101236.00
2022-09-03T20:54:42.546Z,101252.88
2022-09-03T20:57:08.986Z,101244.06
2022-09-03T20:59:44.738Z,101245.72
2022-09-03T21:02:11.020Z,101251.47
2022-09-03T21:04:56.356Z,101253.97
2022-09-03T21:07:29.136Z,101259.50
2022-09-03T21:10:16.002Z,101260.31
2022-09-03T21:12:42.253Z,101262.97
2022-09-03T21:15:16.358Z,101264.00
2022-09-03T21:17:42.627Z,101263.19
2022-09-03T21:20:29.181Z,101266.69
2022-09-03T21:23:04.860Z,101270.81
2022-09-03T21:25:36.921Z,101269.63
2022-09-03T21:28:06.665Z,101269.38
2022-09-03T21:30:37.751Z,101278.63
2022-09-03T21:33:20.751Z,101281.69
2022-09-03T21:35:50.261Z,101280.88
2022-09-03T21:38:21.184Z,101281.28
2022-09-03T21:40:53.389Z,101277.59
2022-09-03T21:43:33.094Z,101281.09
2022-09-03T21:46:08.700Z,101274.72
2022-09-03T21:48:50.166Z,101278.00
2022-09-03T21:51:18.934Z,101275.97
2022-09-03T21:53:52.702Z,101281.28
2022-09-03T21:56:37.279Z,101282.09
2022-09-03T21:59:08.328Z,101291.34
2022-09-03T22:01:48.185Z,101291.13
2022-09-03T22:04:14.719Z,101293.19
2022-09-03T22:06:50.848Z,101291.94
2022-09-03T22:09:31.842Z,101301.19
2022-09-03T22:12:02.923Z,101299.53
2022-09-03T22:14:32.740Z,101303.22
2022-09-03T22:17:16.784Z,101301.16
2022-09-03T22:19:43.038Z,101301.56
2022-09-03T22:22:22.519Z,101305.66
2022-09-03T22:24:58.659Z,101309.75
2022-09-03T22:27:37.027Z,101306.88
2022-09-03T22:30:11.337Z,101316.31
2022-09-03T22:32:37.641Z,101308.66
2022-09-03T22:35:36.321Z,101312.94
2022-09-03T22:38:09.539Z,101311.09
2022-09-03T22:40:50.741Z,101311.03
2022-09-03T22:43:26.925Z,101314.75
2022-09-03T22:46:05.529Z,101310.41
2022-09-03T22:48:48.706Z,101323.13
2022-09-03T22:51:21.050Z,101327.19
2022-09-03T22:53:59.318Z,101326.38
2022-09-03T22:56:25.942Z,101324.09
2022-09-03T22:59:10.821Z,101327.38
2022-09-03T23:01:43.532Z,101334.53
2022-09-03T23:04:25.486Z,101325.09
2022-09-03T23:06:57.343Z,101324.88
2022-09-03T23:09:27.499Z,101326.28
2022-09-03T23:11:59.533Z,101328.91
2022-09-03T23:14:34.246Z,101335.81
2022-09-03T23:17:06.234Z,101333.75
2022-09-03T23:19:59.093Z,101337.66
2022-09-03T23:22:29.672Z,101346.19
2022-09-03T23:25:10.546Z,101345.56
2022-09-03T23:27:58.477Z,101351.50
2022-09-03T23:30:24.763Z,101354.34
2022-09-03T23:32:55.728Z,101350.19
2022-09-03T23:35:26.411Z,101349.75
2022-09-03T23:38:11.337Z,101348.72
2022-09-03T23:40:51.690Z,101352.59
2022-09-03T23:43:24.112Z,101350.34
2022-09-03T23:46:00.523Z,101355.59
2022-09-03T23:48:45.695Z,101350.47
2022-09-03T23:51:30.919Z,101352.72
2022-09-03T23:54:05.671Z,101343.25
2022-09-03T23:56:34.780Z,101353.72
2022-09-03T23:59:01.010Z,101353.53
